Flight Track Log - Related Links

Times and Time Zones

All times are in EDT time to prevent confusion due to time zone crossing. See the AWI3970 flight status page for this flight to view local times or setup timezone preferences in your user account.

Time Position Orientation Groundspeed Altitude Reporting Facility
EDT Latitude Longitude Course Direction KTS MPH feet Rate Location/Type
Fri 11:05:02 PM 39.8667 -75.2833 North 163 188 1,100  Level Philadelphia TRACON
Fri 11:07:00 PM 39.8139 -74.8529 105° East  Level FlightAware Approximate
Fri 11:07:20 PM 39.7847 -75.3578 215° Southwest 179 206 5,400  Level New York Center
Fri 11:08:00 PM 39.7882 -74.7245 105° East  Level FlightAware Approximate
Fri 11:08:20 PM 39.7781 -75.2603 95° East 144 166 6,800  Level New York Center
Fri 11:09:00 PM 39.8488 -74.6346 37° Northeast  Level FlightAware Approximate
Fri 11:10:00 PM 39.9330 -74.5667 North  Level FlightAware Approximate
Fri 11:10:20 PM 39.7864 -75.0311 87° East 272 313 10,800  Level New York Center
Fri 11:11:20 PM 39.7867 -74.9067 90° East 316 364 12,000 1,100 Climbing New York Center
Fri 11:12:20 PM 39.7928 -74.7911 86° East 338 389 13,000 1,200 Climbing New York Center
Fri 11:13:20 PM 39.8300 -74.6742 67° East 350 403 14,400 1,650 Climbing New York Center
Fri 11:14:20 PM 39.9267 -74.5875 35° Northeast 347 399 16,300 1,600 Climbing New York Center
Fri 11:15:20 PM 40.0086 -74.5025 38° Northeast 353 406 17,600 1,300 Climbing New York Center
Fri 11:16:20 PM 40.0967 -74.4206 35° Northeast 379 436 18,900 1,200 Climbing New York Center
Fri 11:17:20 PM 40.1806 -74.3353 38° Northeast 379 436 20,000 1,400 Climbing New York Center
Fri 11:18:20 PM 40.2686 -74.2472 37° Northeast 384 442 21,700 1,650 Climbing New York Center
Fri 11:19:20 PM 40.3564 -74.1728 33° Northeast 384 442 23,300 975 Climbing New York Center
Fri 11:21:43 PM 40.5736 -74.0603 21° North 376 433 25,000 510 Climbing Boston Center
Fri 11:22:40 PM 40.6864 -74.0439 North 391 450 25,000  Level Boston Center
Fri 11:23:41 PM 40.8053 -74.0358 North 405 466 25,000  Level Boston Center
Fri 11:24:41 PM 40.9261 -74.0253 North 417 480 25,000  Level Boston Center
Fri 11:25:40 PM 41.0453 -74.0089 North 424 488 25,000  Level Boston Center
Fri 11:26:42 PM 41.1664 -73.9953 North 430 495 25,000  Level Boston Center
Fri 11:27:43 PM 41.2917 -73.9789 North 440 506 25,000  Level Boston Center
Fri 11:28:42 PM 41.4169 -73.9653 North 445 512 25,000 -923 Level Boston Center
Fri 11:29:40 PM 41.5378 -73.9517 North 445 512 23,200 -1,983 Descending Boston Center
Fri 11:30:40 PM 41.6547 -73.9378 North 433 498 21,100 -2,146 Descending Boston Center
Fri 11:31:43 PM 41.7675 -73.9236 North 412 474 18,800 -2,244 Descending Boston Center
Fri 11:32:43 PM 41.8678 -73.9092 North 365 420 16,500 -2,150 Descending Boston Center
Fri 11:33:43 PM 41.9636 -73.9003 North 352 405 14,500 -2,100 Descending Boston Center
Fri 11:34:43 PM 42.0578 -73.8886 North 346 398 12,300 -2,106 Descending Boston Center
Fri 11:35:17 PM 42.1078 -73.8869 North 329 379 11,200 -963 Descending Boston Center
Fri 11:36:04 PM 42.1869 -73.8747 North 336 387 11,000 -140 Descending Boston Center
Fri 11:36:43 PM 42.2456 -73.8647 North 333 383 11,000 -250 Level Boston Center
Fri 11:37:40 PM 42.3353 -73.8611 North 333 383 10,600 -1,462 Descending Boston Center
Fri 11:38:42 PM 42.4186 -73.8547 North 300 345 8,100 -2,244 Descending Boston Center
Fri 11:39:43 PM 42.4919 -73.8367 10° North 283 326 6,000 -2,339 Descending Boston Center
Fri 11:40:40 PM 42.5650 -73.8214 North 259 298 3,500 -1,765 Descending Boston Center
Fri 11:41:42 PM 42.6214 -73.8114 North 246 283 2,500 -590 Descending Boston Center
Fri 11:42:42 PM 42.6967 -73.7989 North 246 283 2,300 -200 Descending Boston Center
Fri 11:51:00 PM 42.7491 -73.8020 10° North  Level Estimated

Login

Don't have an account? Register now (free) for customized features, flight alerts, and more!